createdAt,value
2022-10-11T00:01:41.279Z,4.55
2022-10-11T00:04:08.012Z,4.28
2022-10-11T00:06:34.503Z,4.32
2022-10-11T00:09:00.968Z,4.28
2022-10-11T00:11:27.499Z,4.75
2022-10-11T00:13:53.905Z,5.07
2022-10-11T00:16:20.339Z,6.85
2022-10-11T00:18:47.088Z,7.75
2022-10-11T00:21:15.988Z,6.35
2022-10-11T00:23:43.330Z,6.75
2022-10-11T00:26:11.133Z,5.57
2022-10-11T00:28:38.098Z,4.82
2022-10-11T00:31:13.575Z,4.63
2022-10-11T00:33:40.382Z,4.70
2022-10-11T00:36:08.707Z,4.88
2022-10-11T00:38:35.495Z,5.28
2022-10-11T00:41:02.535Z,4.55
2022-10-11T00:43:30.519Z,4.38
2022-10-11T00:45:56.903Z,5.88
2022-10-11T00:48:36.538Z,4.85
2022-10-11T00:51:08.167Z,5.25
2022-10-11T00:53:34.904Z,4.95
2022-10-11T00:56:08.672Z,5.60
2022-10-11T00:58:36.427Z,5.63
2022-10-11T01:01:03.637Z,4.53
2022-10-11T01:03:32.924Z,5.35
2022-10-11T01:05:59.452Z,6.05
2022-10-11T01:08:27.045Z,6.25
2022-10-11T01:10:53.689Z,5.90
2022-10-11T01:13:35.300Z,6.13
2022-10-11T01:16:23.294Z,5.43
2022-10-11T01:19:00.690Z,5.80
2022-10-11T01:21:36.150Z,4.88
2022-10-11T01:24:35.743Z,4.90
2022-10-11T01:27:38.344Z,4.38
2022-10-11T01:30:27.683Z,5.45
2022-10-11T01:32:56.926Z,4.97
2022-10-11T01:35:49.331Z,5.70
2022-10-11T01:38:27.236Z,5.18
2022-10-11T01:41:00.225Z,5.50
2022-10-11T01:43:28.574Z,5.85
2022-10-11T01:45:57.217Z,4.40
2022-10-11T01:48:23.782Z,5.20
2022-10-11T01:50:55.455Z,4.45
2022-10-11T01:53:24.936Z,5.55
2022-10-11T01:55:57.657Z,4.70
2022-10-11T01:59:09.243Z,4.85
2022-10-11T02:02:12.535Z,4.82
2022-10-11T02:05:06.584Z,4.38
2022-10-11T02:07:59.797Z,4.93
2022-10-11T02:10:50.781Z,4.57
2022-10-11T02:13:26.382Z,3.95
2022-10-11T02:15:57.253Z,3.85
2022-10-11T02:18:27.646Z,3.88
2022-10-11T02:20:57.400Z,3.67
2022-10-11T02:23:29.798Z,2.90
2022-10-11T02:25:57.837Z,4.40
2022-10-11T02:28:29.721Z,3.92
2022-10-11T02:30:58.008Z,3.70
2022-10-11T02:33:31.659Z,4.68
2022-10-11T02:36:05.577Z,4.68
2022-10-11T02:38:40.523Z,4.50
2022-10-11T02:41:15.788Z,4.57
2022-10-11T02:43:48.321Z,5.85
2022-10-11T02:46:17.648Z,5.50
2022-10-11T02:48:44.253Z,4.97
2022-10-11T02:51:14.526Z,5.00
2022-10-11T02:53:41.031Z,5.20
2022-10-11T02:56:08.164Z,4.75
2022-10-11T02:58:34.963Z,4.65
2022-10-11T03:01:01.605Z,5.60
2022-10-11T03:03:28.114Z,5.78
2022-10-11T03:05:59.751Z,5.32
2022-10-11T03:08:26.479Z,5.68
2022-10-11T03:10:52.934Z,5.60
2022-10-11T03:13:19.573Z,4.47
2022-10-11T03:16:02.828Z,5.57
2022-10-11T03:18:30.741Z,5.75
2022-10-11T03:20:57.191Z,6.20
2022-10-11T03:23:23.639Z,5.07
2022-10-11T03:25:51.962Z,4.50
2022-10-11T03:28:18.815Z,5.65
2022-10-11T03:30:48.256Z,4.80
2022-10-11T03:33:15.330Z,4.32
2022-10-11T03:35:45.642Z,5.03
2022-10-11T03:38:18.433Z,4.75
2022-10-11T03:40:44.936Z,4.82
2022-10-11T03:43:11.725Z,4.90
2022-10-11T03:45:38.196Z,5.00
2022-10-11T03:48:05.166Z,4.55
2022-10-11T03:50:31.635Z,5.20
2022-10-11T03:52:58.119Z,4.80
2022-10-11T03:55:24.682Z,5.22
2022-10-11T03:57:51.113Z,5.05
2022-10-11T04:00:17.709Z,5.05
2022-10-11T04:02:44.363Z,4.93
2022-10-11T04:05:12.569Z,5.28
2022-10-11T04:07:39.677Z,4.70
2022-10-11T04:10:07.116Z,5.07
2022-10-11T04:12:33.858Z,5.00
2022-10-11T04:15:00.314Z,4.40
2022-10-11T04:17:27.145Z,4.68
2022-10-11T04:19:53.569Z,5.53
2022-10-11T04:22:20.018Z,4.40
2022-10-11T04:24:46.549Z,4.22
2022-10-11T04:27:12.994Z,4.65
2022-10-11T04:29:39.458Z,4.88
2022-10-11T04:32:05.928Z,5.38
2022-10-11T04:34:32.369Z,6.50
2022-10-11T04:36:58.916Z,6.10
2022-10-11T04:39:25.440Z,5.72
2022-10-11T04:41:51.977Z,6.30
2022-10-11T04:44:18.491Z,4.88
2022-10-11T04:46:44.958Z,5.50
2022-10-11T04:49:11.443Z,5.60
2022-10-11T04:51:37.981Z,6.10
2022-10-11T04:54:04.556Z,5.50
2022-10-11T04:56:30.996Z,5.00
2022-10-11T04:58:57.490Z,5.30
2022-10-11T05:01:23.964Z,4.88
2022-10-11T05:03:50.398Z,5.35
2022-10-11T05:06:16.882Z,4.47
2022-10-11T05:08:43.356Z,5.85
2022-10-11T05:11:15.510Z,5.57
2022-10-11T05:13:43.323Z,4.85
2022-10-11T05:16:11.440Z,5.22
2022-10-11T05:18:39.186Z,5.78
2022-10-11T05:21:10.093Z,5.90
2022-10-11T05:23:37.269Z,6.50
2022-10-11T05:26:04.766Z,6.47
2022-10-11T05:28:31.862Z,5.68
2022-10-11T05:30:58.732Z,6.18
2022-10-11T05:33:25.903Z,5.30
2022-10-11T05:35:52.959Z,6.90
2022-10-11T05:38:19.592Z,7.07
2022-10-11T05:40:46.140Z,6.70
2022-10-11T05:43:12.801Z,6.47
2022-10-11T05:45:40.966Z,6.30
2022-10-11T05:48:08.141Z,4.80
2022-10-11T05:50:35.611Z,5.72
2022-10-11T05:53:02.453Z,5.10
2022-10-11T05:55:28.924Z,4.07
2022-10-11T05:57:56.613Z,3.40
2022-10-11T06:00:24.735Z,3.55
2022-10-11T06:02:51.217Z,3.67
2022-10-11T06:05:18.209Z,3.17
2022-10-11T06:07:44.796Z,2.92
2022-10-11T06:10:11.895Z,3.85
2022-10-11T06:12:38.857Z,4.40
2022-10-11T06:15:06.486Z,3.85
2022-10-11T06:17:33.060Z,4.10
2022-10-11T06:19:59.905Z,4.35
2022-10-11T06:22:26.777Z,3.53
2022-10-11T06:24:53.213Z,3.97
2022-10-11T06:27:19.666Z,4.03
2022-10-11T06:29:46.078Z,4.03
2022-10-11T06:32:13.399Z,4.50
2022-10-11T06:34:39.858Z,3.88
2022-10-11T06:37:06.591Z,4.43
2022-10-11T06:39:33.313Z,4.38
2022-10-11T06:42:00.095Z,5.15
2022-10-11T06:44:26.882Z,5.25
2022-10-11T06:46:53.371Z,4.75
2022-10-11T06:49:23.276Z,5.13
2022-10-11T06:51:50.411Z,5.88
2022-10-11T06:54:16.875Z,4.65
2022-10-11T06:56:45.767Z,6.25
2022-10-11T06:59:13.419Z,5.40
2022-10-11T07:01:40.014Z,5.18
2022-10-11T07:04:06.638Z,5.47
2022-10-11T07:06:37.728Z,5.20
2022-10-11T07:09:05.274Z,5.57
2022-10-11T07:11:31.831Z,6.43
2022-10-11T07:14:00.893Z,7.50
2022-10-11T07:16:28.354Z,8.23
2022-10-11T07:19:00.196Z,8.65
2022-10-11T07:21:28.286Z,8.80
2022-10-11T07:23:54.921Z,8.65
2022-10-11T07:26:21.443Z,8.68
2022-10-11T07:28:48.152Z,9.10
2022-10-11T07:31:20.547Z,7.82
2022-10-11T07:33:47.066Z,8.85
2022-10-11T07:36:14.016Z,8.43
2022-10-11T07:38:45.200Z,9.55
2022-10-11T07:41:11.758Z,9.75
2022-10-11T07:43:39.858Z,11.10
2022-10-11T07:46:07.494Z,11.23
2022-10-11T07:48:35.633Z,10.25
2022-10-11T07:51:16.773Z,11.95
2022-10-11T07:53:47.497Z,10.52
2022-10-11T07:56:18.526Z,10.57
2022-10-11T07:58:50.431Z,11.90
2022-10-11T08:01:17.472Z,13.30
2022-10-11T08:03:43.970Z,11.80
2022-10-11T08:06:13.516Z,12.20
2022-10-11T08:08:39.986Z,11.68
2022-10-11T08:11:07.163Z,11.32
2022-10-11T08:13:34.372Z,10.85
2022-10-11T08:16:00.926Z,11.18
2022-10-11T08:18:27.844Z,10.88
2022-10-11T08:20:54.344Z,12.05
2022-10-11T08:23:20.797Z,11.68
2022-10-11T08:25:48.428Z,11.05
2022-10-11T08:28:17.521Z,10.52
2022-10-11T08:30:51.919Z,11.85
2022-10-11T08:33:19.514Z,11.68
2022-10-11T08:35:46.204Z,11.15
2022-10-11T08:38:12.704Z,10.23
2022-10-11T08:40:46.136Z,10.55
2022-10-11T08:43:27.132Z,10.50
2022-10-11T08:45:57.269Z,11.27
2022-10-11T08:48:35.484Z,11.10
2022-10-11T08:51:06.466Z,11.60
2022-10-11T08:53:48.096Z,10.05
2022-10-11T08:56:16.381Z,9.65
2022-10-11T08:58:49.608Z,9.02
2022-10-11T09:01:20.916Z,10.73
2022-10-11T09:03:48.589Z,8.68
2022-10-11T09:06:24.944Z,8.55
2022-10-11T09:09:06.659Z,9.15
2022-10-11T09:11:45.707Z,9.00
2022-10-11T09:14:20.565Z,8.65
2022-10-11T09:17:11.364Z,8.07
2022-10-11T09:19:56.567Z,7.65
2022-10-11T09:22:30.728Z,7.78
2022-10-11T09:25:21.740Z,7.82
2022-10-11T09:28:03.171Z,7.72
2022-10-11T09:30:30.721Z,7.10
2022-10-11T09:33:13.370Z,6.60
2022-10-11T09:35:46.103Z,6.53
2022-10-11T09:38:18.828Z,6.28
2022-10-11T09:41:04.834Z,5.63
2022-10-11T09:43:31.526Z,5.32
2022-10-11T09:45:58.066Z,5.65
2022-10-11T09:48:40.290Z,5.05
2022-10-11T09:51:12.422Z,5.93
2022-10-11T09:54:10.816Z,5.33
2022-10-11T09:56:43.947Z,4.80
2022-10-11T09:59:29.440Z,5.90
2022-10-11T10:02:08.011Z,5.82
2022-10-11T10:04:34.548Z,5.65
2022-10-11T10:07:13.114Z,6.18
2022-10-11T10:09:39.666Z,5.85
2022-10-11T10:12:12.902Z,7.15
2022-10-11T10:14:41.017Z,6.38
2022-10-11T10:17:15.907Z,7.25
2022-10-11T10:19:54.651Z,6.82
2022-10-11T10:22:31.227Z,6.32
2022-10-11T10:25:02.180Z,6.05
2022-10-11T10:27:30.565Z,5.30
2022-10-11T10:30:03.267Z,4.82
2022-10-11T10:32:48.786Z,4.85
2022-10-11T10:35:34.205Z,4.68
2022-10-11T10:38:05.684Z,4.80
2022-10-11T10:40:38.149Z,4.45
2022-10-11T10:43:04.676Z,3.40
2022-10-11T10:46:04.296Z,3.55
2022-10-11T10:51:57.779Z,4.15
2022-10-11T10:54:39.322Z,3.75
2022-10-11T10:57:25.088Z,4.10
2022-10-11T11:00:17.317Z,3.92
2022-10-11T11:03:03.084Z,4.55
2022-10-11T11:05:55.479Z,4.13
2022-10-11T11:08:57.491Z,4.97
2022-10-11T11:11:28.582Z,4.68
2022-10-11T11:14:26.887Z,4.32
2022-10-11T11:17:16.134Z,4.50
2022-10-11T11:19:54.803Z,4.80
2022-10-11T11:22:31.914Z,4.53
2022-10-11T11:24:59.153Z,4.68
2022-10-11T11:27:44.349Z,4.70
2022-10-11T11:30:22.802Z,4.80
2022-10-11T11:33:14.276Z,4.50
2022-10-11T11:35:56.253Z,4.88
2022-10-11T11:38:47.033Z,5.25
2022-10-11T11:41:36.421Z,4.75
2022-10-11T11:44:17.895Z,4.75
2022-10-11T11:46:50.274Z,6.20
2022-10-11T11:49:23.615Z,6.30
2022-10-11T11:51:51.704Z,6.15
2022-10-11T11:54:39.210Z,6.95
2022-10-11T11:57:29.833Z,7.07
2022-10-11T12:00:05.992Z,7.55
2022-10-11T12:02:43.881Z,7.75
2022-10-11T12:05:14.124Z,7.57
2022-10-11T12:07:48.031Z,8.10
2022-10-11T12:10:24.099Z,7.80
2022-10-11T12:13:17.987Z,8.82
2022-10-11T12:16:06.091Z,8.20
2022-10-11T12:18:37.176Z,7.70
2022-10-11T12:21:19.846Z,9.13
2022-10-11T12:23:52.453Z,8.23
2022-10-11T12:26:27.777Z,8.45
2022-10-11T12:29:06.317Z,8.93
2022-10-11T12:31:35.721Z,8.38
2022-10-11T12:34:02.148Z,9.10
2022-10-11T12:36:29.621Z,8.98
2022-10-11T12:39:20.944Z,9.52
2022-10-11T12:41:47.377Z,9.52
2022-10-11T12:44:23.349Z,9.40
2022-10-11T12:46:55.799Z,8.77
2022-10-11T12:49:32.195Z,9.40
2022-10-11T12:52:16.620Z,10.45
2022-10-11T12:54:58.306Z,9.73
2022-10-11T12:57:56.341Z,10.35
2022-10-11T13:00:34.515Z,10.35
2022-10-11T13:03:04.822Z,10.25
2022-10-11T13:05:47.742Z,10.80
2022-10-11T13:08:24.439Z,12.15
2022-10-11T13:10:52.621Z,11.63
2022-10-11T13:13:24.484Z,11.40
2022-10-11T13:15:54.273Z,10.57
2022-10-11T13:18:24.139Z,11.30
2022-10-11T13:20:50.919Z,12.15
2022-10-11T13:23:28.595Z,12.32
2022-10-11T13:25:56.626Z,11.60
2022-10-11T13:28:23.824Z,11.07
2022-10-11T13:30:54.283Z,12.55
2022-10-11T13:33:42.614Z,11.05
2022-10-11T13:36:17.670Z,11.73
2022-10-11T13:38:54.484Z,10.52
2022-10-11T13:41:21.696Z,10.90
2022-10-11T13:43:48.737Z,11.07
2022-10-11T13:46:21.917Z,10.07
2022-10-11T13:48:59.588Z,11.25
2022-10-11T13:51:37.512Z,11.18
2022-10-11T13:54:13.505Z,10.75
2022-10-11T13:56:48.118Z,10.35
2022-10-11T13:59:22.009Z,10.68
2022-10-11T14:01:50.593Z,9.50
2022-10-11T14:04:17.520Z,10.30
2022-10-11T14:06:58.208Z,10.07
2022-10-11T14:09:28.894Z,10.23
2022-10-11T14:11:56.319Z,10.70
2022-10-11T14:14:35.265Z,10.00
2022-10-11T14:17:12.529Z,10.32
2022-10-11T14:19:39.810Z,10.48
2022-10-11T14:22:11.895Z,11.18
2022-10-11T14:24:38.321Z,11.43
2022-10-11T14:27:09.513Z,12.27
2022-10-11T14:29:38.892Z,11.52
2022-10-11T14:32:10.641Z,11.18
2022-10-11T14:34:37.342Z,11.10
2022-10-11T14:37:04.262Z,11.95
2022-10-11T14:39:32.239Z,12.00
2022-10-11T14:41:59.218Z,10.45
2022-10-11T14:44:25.863Z,13.35
2022-10-11T14:46:54.663Z,11.57
2022-10-11T14:49:28.047Z,11.15
2022-10-11T14:51:56.244Z,11.50
2022-10-11T14:54:24.318Z,11.10
2022-10-11T14:56:52.556Z,10.63
2022-10-11T14:59:21.977Z,9.98
2022-10-11T15:01:53.547Z,10.18
2022-10-11T15:04:21.649Z,10.27
2022-10-11T15:06:49.061Z,9.70
2022-10-11T15:09:17.064Z,8.93
2022-10-11T15:11:43.854Z,8.73
2022-10-11T15:14:10.273Z,9.05
2022-10-11T15:16:36.708Z,9.75
2022-10-11T15:19:03.295Z,8.88
2022-10-11T15:21:29.820Z,9.10
2022-10-11T15:23:56.883Z,9.23
2022-10-11T15:26:26.276Z,8.68
2022-10-11T15:28:54.660Z,8.73
2022-10-11T15:31:21.630Z,9.80
2022-10-11T15:33:48.662Z,8.82
2022-10-11T15:36:19.061Z,9.73
2022-10-11T15:38:46.966Z,8.52
2022-10-11T15:41:15.701Z,8.38
2022-10-11T15:43:44.258Z,9.02
2022-10-11T15:46:17.482Z,9.00
2022-10-11T15:48:45.158Z,9.93
2022-10-11T15:51:11.842Z,9.13
2022-10-11T15:53:38.446Z,9.40
2022-10-11T15:56:08.743Z,9.13
2022-10-11T15:58:38.811Z,8.60
2022-10-11T16:01:09.407Z,8.10
2022-10-11T16:03:36.414Z,8.02
2022-10-11T16:06:05.384Z,8.88
2022-10-11T16:08:33.222Z,8.63
2022-10-11T16:10:59.683Z,7.95
2022-10-11T16:13:26.154Z,7.88
2022-10-11T16:15:52.731Z,9.15
2022-10-11T16:18:21.011Z,7.40
2022-10-11T16:20:49.526Z,8.68
2022-10-11T16:23:16.034Z,9.00
2022-10-11T16:25:43.316Z,8.50
2022-10-11T16:28:10.613Z,8.65
2022-10-11T16:30:43.775Z,8.50
2022-10-11T16:35:41.523Z,8.60
2022-10-11T16:38:08.108Z,9.20
2022-10-11T16:40:36.010Z,8.43
2022-10-11T16:43:07.449Z,8.18
2022-10-11T16:45:35.335Z,7.90
2022-10-11T16:48:02.316Z,7.68
2022-10-11T16:50:29.109Z,8.07
2022-10-11T16:52:55.929Z,6.97
2022-10-11T16:55:22.656Z,7.20
2022-10-11T16:57:49.067Z,7.32
2022-10-11T17:00:16.074Z,6.75
2022-10-11T17:02:42.569Z,7.03
2022-10-11T17:05:09.180Z,6.95
2022-10-11T17:07:35.684Z,7.15
2022-10-11T17:10:02.464Z,7.78
2022-10-11T17:12:29.286Z,6.78
2022-10-11T17:14:56.261Z,6.32
2022-10-11T17:17:22.708Z,5.63
2022-10-11T17:19:49.293Z,7.00
2022-10-11T17:22:18.349Z,6.10
2022-10-11T17:24:45.363Z,5.82
2022-10-11T17:27:11.808Z,6.15
2022-10-11T17:29:38.497Z,5.30
2022-10-11T17:32:05.149Z,6.05
2022-10-11T17:34:31.782Z,6.03
2022-10-11T17:36:58.472Z,6.30
2022-10-11T17:39:25.733Z,5.70
2022-10-11T17:41:52.674Z,6.00
2022-10-11T17:44:19.468Z,5.07
2022-10-11T17:46:46.661Z,5.95
2022-10-11T17:49:13.958Z,6.45
2022-10-11T17:51:41.085Z,6.65
2022-10-11T17:54:12.396Z,6.28
2022-10-11T17:56:40.808Z,6.70
2022-10-11T17:59:09.306Z,5.95
2022-10-11T18:01:36.313Z,6.10
2022-10-11T18:04:05.036Z,6.55
2022-10-11T18:06:34.166Z,5.97
2022-10-11T18:09:02.060Z,5.85
2022-10-11T18:11:29.030Z,6.53
2022-10-11T18:13:55.690Z,6.03
2022-10-11T18:16:24.262Z,6.35
2022-10-11T18:18:50.756Z,6.40
2022-10-11T18:21:18.754Z,6.57
2022-10-11T18:23:46.021Z,6.93
2022-10-11T18:26:15.761Z,6.20
2022-10-11T18:28:43.397Z,6.85
2022-10-11T18:31:13.949Z,6.25
2022-10-11T18:33:41.890Z,6.25
2022-10-11T18:36:10.530Z,5.55
2022-10-11T18:38:38.403Z,6.35
2022-10-11T18:41:07.287Z,5.88
2022-10-11T18:43:34.426Z,6.95
2022-10-11T18:46:19.906Z,6.15
2022-10-11T18:48:48.900Z,6.40
2022-10-11T18:51:18.293Z,6.60
2022-10-11T18:53:45.629Z,6.25
2022-10-11T18:56:13.773Z,6.10
2022-10-11T18:58:41.604Z,6.90
2022-10-11T19:01:11.536Z,6.82
2022-10-11T19:03:38.427Z,6.10
2022-10-11T19:06:07.718Z,7.07
2022-10-11T19:08:34.838Z,7.53
2022-10-11T19:11:08.644Z,6.38
2022-10-11T19:13:36.090Z,6.80
2022-10-11T19:16:07.735Z,6.85
2022-10-11T19:18:34.617Z,6.63
2022-10-11T19:21:09.330Z,6.95
2022-10-11T19:23:40.976Z,6.80
2022-10-11T19:26:12.817Z,6.32
2022-10-11T19:28:39.301Z,7.63
2022-10-11T19:31:08.926Z,7.75
2022-10-11T19:33:36.627Z,6.97
2022-10-11T19:36:05.725Z,6.78
2022-10-11T19:38:34.060Z,7.65
2022-10-11T19:41:01.894Z,6.50
2022-10-11T19:43:28.469Z,6.80
2022-10-11T19:46:09.823Z,7.25
2022-10-11T19:48:38.155Z,6.22
2022-10-11T19:51:09.919Z,6.70
2022-10-11T19:53:36.622Z,6.72
2022-10-11T19:56:05.312Z,7.18
2022-10-11T19:58:31.901Z,8.07
2022-10-11T20:01:09.968Z,7.35
2022-10-11T20:03:38.057Z,7.70
2022-10-11T20:06:08.237Z,7.25
2022-10-11T20:08:35.703Z,7.63
2022-10-11T20:11:06.064Z,8.30
2022-10-11T20:13:35.221Z,7.60
2022-10-11T20:16:09.767Z,7.60
2022-10-11T20:18:37.770Z,7.85
2022-10-11T20:21:16.951Z,8.65
2022-10-11T20:23:45.828Z,7.80
2022-10-11T20:26:15.101Z,7.40
2022-10-11T20:28:42.828Z,7.85
2022-10-11T20:31:15.729Z,8.27
2022-10-11T20:33:42.979Z,7.38
2022-10-11T20:36:12.760Z,8.38
2022-10-11T20:38:41.458Z,8.20
2022-10-11T20:41:10.694Z,7.78
2022-10-11T20:43:37.632Z,8.05
2022-10-11T20:46:10.023Z,7.47
2022-10-11T20:48:37.978Z,9.03
2022-10-11T20:51:06.349Z,7.88
2022-10-11T20:53:35.678Z,8.23
2022-10-11T20:56:02.540Z,8.52
2022-10-11T20:58:29.072Z,8.27
2022-10-11T21:00:55.610Z,7.97
2022-10-11T21:03:22.233Z,8.68
2022-10-11T21:05:57.930Z,8.63
2022-10-11T21:08:24.455Z,8.63
2022-10-11T21:10:52.596Z,8.25
2022-10-11T21:13:19.332Z,9.50
2022-10-11T21:15:45.884Z,9.40
2022-10-11T21:18:13.012Z,10.32
2022-10-11T21:20:43.174Z,8.63
2022-10-11T21:23:10.594Z,9.63
2022-10-11T21:25:37.482Z,8.88
2022-10-11T21:28:04.944Z,10.02
2022-10-11T21:30:32.571Z,8.75
2022-10-11T21:32:59.126Z,9.82
2022-10-11T21:35:29.922Z,9.52
2022-10-11T21:37:58.236Z,9.82
2022-10-11T21:40:25.106Z,8.90
2022-10-11T21:42:51.557Z,8.30
2022-10-11T21:45:18.128Z,8.15
2022-10-11T21:47:44.615Z,8.93
2022-10-11T21:50:11.024Z,8.63
2022-10-11T21:52:37.892Z,8.77
2022-10-11T21:55:04.855Z,9.45
2022-10-11T21:57:31.272Z,8.55
2022-10-11T21:59:57.945Z,8.77
2022-10-11T22:02:24.429Z,9.05
2022-10-11T22:04:50.838Z,9.02
2022-10-11T22:07:17.378Z,9.27
2022-10-11T22:09:43.808Z,9.65
2022-10-11T22:12:10.259Z,8.75
2022-10-11T22:14:36.713Z,9.18
2022-10-11T22:17:03.131Z,8.95
2022-10-11T22:19:29.574Z,9.82
2022-10-11T22:21:55.999Z,8.68
2022-10-11T22:24:22.500Z,8.05
2022-10-11T22:26:48.950Z,8.57
2022-10-11T22:29:15.434Z,9.35
2022-10-11T22:31:42.356Z,8.98
2022-10-11T22:34:08.808Z,8.35
2022-10-11T22:36:35.331Z,8.05
2022-10-11T22:39:07.564Z,8.27
2022-10-11T22:41:35.726Z,8.55
2022-10-11T22:44:02.405Z,8.25
2022-10-11T22:46:28.869Z,8.32
2022-10-11T22:48:55.311Z,8.30
2022-10-11T22:51:21.725Z,8.70
2022-10-11T22:53:48.542Z,9.45
2022-10-11T22:56:15.340Z,9.40
2022-10-11T22:58:41.869Z,9.93
2022-10-11T23:01:11.010Z,9.55
2022-10-11T23:03:37.961Z,10.35
2022-10-11T23:06:05.097Z,8.60
2022-10-11T23:08:31.596Z,8.82
2022-10-11T23:11:03.168Z,9.30
2022-10-11T23:13:29.595Z,8.85
2022-10-11T23:15:56.154Z,9.52
2022-10-11T23:18:22.674Z,9.93
2022-10-11T23:20:49.100Z,10.48
2022-10-11T23:23:15.539Z,9.75
2022-10-11T23:25:41.954Z,9.93
2022-10-11T23:28:08.359Z,9.55
2022-10-11T23:30:34.852Z,9.75
2022-10-11T23:33:01.286Z,10.02
2022-10-11T23:35:27.766Z,10.40
2022-10-11T23:37:54.803Z,11.23
2022-10-11T23:40:21.356Z,10.57
2022-10-11T23:42:47.869Z,10.38
2022-10-11T23:45:14.298Z,10.80
2022-10-11T23:47:40.959Z,10.90
2022-10-11T23:50:08.478Z,11.35
2022-10-11T23:52:34.900Z,10.98
2022-10-11T23:55:01.310Z,10.60
2022-10-11T23:57:27.734Z,10.98
2022-10-11T23:59:54.166Z,10.82
